Terminal Aerodrome Forecast
Issued by NWS

Home | Current Version | Previous Version | Text Only | Print | Product List | Glossary On
Versions: 1 2 3 4 5 6 7 8 9 10 11 12 13 14 15 16 17 18 19 20 21 22 23 24 25
135
FTUS46 KMTR 261948 AAA
TAFSFO
TAF AMD
KSFO 261948Z 2620/2724 21011KT P6SM OVC035
      TEMPO 2623/2703 SCT035
     FM270300 24010KT P6SM BKN025
     FM270600 26006KT P6SM BKN020
     FM271000 26005KT P6SM OVC015
     FM271700 26011KT P6SM SCT020=

USA.gov is the U.S. government's official web portal to all federal, state and local government web resources and services.